Time;durP1;ratioP1;P1;durP2;ratioP2;P2;SDS_P1;SDS_P2;PMS_P1;PMS_P2;Temp;Humidity;BMP_temperature;BMP_pressure;BME280_temperature;BME280_humidity;BME280_pressure;Samples;Min_cycle;Max_cycle;Signal;HPM_P1;HPM_P2
2022/08/14 00:00:58;;;;;;;4.93;4.60;;;26.60;44.90;;;;;;5039008;28;20467;-91
2022/08/14 00:03:30;;;;;;;4.90;4.60;;;26.60;45.20;;;;;;5039144;28;20534;-90
2022/08/14 00:06:02;;;;;;;4.60;4.20;;;26.40;45.50;;;;;;5038980;28;20457;-90
2022/08/14 00:08:40;;;;;;;5.10;4.70;;;26.40;45.90;;;;;;5039710;28;20465;-87
2022/08/14 00:11:07;;;;;;;5.33;4.83;;;26.20;46.30;;;;;;5032876;28;20533;-84
2022/08/14 00:13:36;;;;;;;5.63;5.23;;;26.10;46.60;;;;;;5024923;28;20478;-86
2022/08/14 00:16:04;;;;;;;4.87;4.57;;;26.00;46.90;;;;;;5022557;28;20462;-85
2022/08/14 00:18:31;;;;;;;5.07;4.73;;;26.10;47.10;;;;;;5022859;28;20438;-86
2022/08/14 00:21:18;;;;;;;5.13;4.80;;;26.20;47.10;;;;;;5029341;28;21940;-88
2022/08/14 00:23:45;;;;;;;4.87;4.57;;;26.10;46.90;;;;;;5024676;28;20478;-86
2022/08/14 00:26:19;;;;;;;5.40;4.50;;;26.10;47.20;;;;;;5024788;28;20484;-86
2022/08/14 00:28:47;;;;;;;5.43;5.00;;;26.00;47.50;;;;;;5028093;28;20450;-87
2022/08/14 00:31:14;;;;;;;5.17;4.77;;;26.00;47.50;;;;;;5019966;28;20453;-84
2022/08/14 00:33:41;;;;;;;5.70;5.30;;;26.10;47.60;;;;;;5020519;28;20461;-86
2022/08/14 00:36:19;;;;;;;5.53;5.13;;;26.10;47.70;;;;;;5026828;28;21006;-88
2022/08/14 00:39:03;;;;;;;5.43;5.03;;;26.10;48.10;;;;;;5011918;28;20450;-87
2022/08/14 00:41:32;;;;;;;5.73;5.23;;;26.10;47.90;;;;;;5022163;28;20481;-85
2022/08/14 00:43:59;;;;;;;5.33;5.03;;;26.10;48.10;;;;;;5022545;28;20505;-87
2022/08/14 00:46:27;;;;;;;6.00;5.40;;;25.90;48.40;;;;;;5021828;28;20517;-85
2022/08/14 00:48:58;;;;;;;5.90;5.40;;;25.90;48.80;;;;;;5016163;28;20490;-86
2022/08/14 00:51:28;;;;;;;5.70;5.30;;;25.90;48.80;;;;;;5012343;28;20541;-86
2022/08/14 00:54:01;;;;;;;5.33;4.97;;;25.90;48.90;;;;;;5020668;28;20867;-89
2022/08/14 00:56:38;;;;;;;5.60;4.93;;;26.00;49.20;;;;;;5019246;28;20482;-87
2022/08/14 00:59:08;;;;;;;5.67;5.27;;;25.90;49.30;;;;;;5021149;28;20470;-88
2022/08/14 01:01:35;;;;;;;5.70;5.30;;;25.80;50.00;;;;;;5019423;28;20462;-88
2022/08/14 01:04:03;;;;;;;5.90;5.40;;;25.80;50.40;;;;;;5004824;28;20518;-86
2022/08/14 01:06:31;;;;;;;5.87;5.47;;;25.80;50.40;;;;;;5012730;28;20550;-84
2022/08/14 01:09:01;;;;;;;5.57;5.17;;;25.80;50.70;;;;;;5006383;28;20467;-86
2022/08/14 01:11:28;;;;;;;6.30;5.80;;;25.80;50.80;;;;;;5012902;28;20532;-86
2022/08/14 01:13:59;;;;;;;6.57;5.80;;;26.00;51.50;;;;;;5005183;28;20478;-85
2022/08/14 01:16:29;;;;;;;6.43;5.93;;;26.00;51.80;;;;;;5014387;28;20481;-86
2022/08/14 01:21:46;;;;;;;6.43;6.00;;;25.70;53.00;;;;;;5017584;28;20972;-86
2022/08/14 01:24:20;;;;;;;6.00;5.50;;;25.70;53.20;;;;;;5018090;28;20474;-85
2022/08/14 01:26:50;;;;;;;6.20;5.80;;;25.70;53.30;;;;;;5018460;28;20490;-86
2022/08/14 01:29:19;;;;;;;5.90;5.50;;;25.50;53.40;;;;;;5015392;28;20505;-85
2022/08/14 01:31:51;;;;;;;6.50;6.00;;;25.40;53.50;;;;;;5017203;28;20460;-90
2022/08/14 01:34:22;;;;;;;6.70;6.10;;;25.40;53.20;;;;;;5035172;28;20564;-86
2022/08/14 01:37:09;;;;;;;5.83;5.40;;;25.30;53.30;;;;;;5026407;28;20477;-86
2022/08/14 01:39:36;;;;;;;6.73;6.23;;;25.20;53.60;;;;;;5037480;28;20450;-85
2022/08/14 01:42:06;;;;;;;5.70;5.30;;;25.30;53.70;;;;;;5036436;28;20457;-90
2022/08/14 01:44:34;;;;;;;6.57;6.07;;;25.40;53.80;;;;;;5027921;28;20470;-86
2022/08/14 01:47:12;;;;;;;6.90;5.93;;;25.40;54.10;;;;;;5022157;28;20462;-86
2022/08/14 01:49:42;;;;;;;7.27;6.67;;;25.30;54.20;;;;;;5022443;28;20935;-86
2022/08/14 01:52:11;;;;;;;6.87;6.37;;;25.20;54.60;;;;;;5022740;28;20496;-87
2022/08/14 01:55:00;;;;;;;7.03;6.37;;;25.10;54.90;;;;;;5027266;28;20482;-87
2022/08/14 01:57:27;;;;;;;7.10;5.80;;;25.20;55.20;;;;;;5020614;28;20636;-85
2022/08/14 01:59:59;;;;;;;6.83;6.23;;;25.10;55.20;;;;;;5025109;28;20453;-85
2022/08/14 02:02:29;;;;;;;6.97;6.47;;;25.00;55.50;;;;;;5032370;28;20506;-85
2022/08/14 02:04:57;;;;;;;7.70;7.10;;;25.00;55.80;;;;;;5027402;28;20478;-88
2022/08/14 02:07:31;;;;;;;6.40;5.90;;;25.00;56.20;;;;;;5026261;28;20521;-85
2022/08/14 02:10:00;;;;;;;7.07;6.47;;;24.90;56.40;;;;;;5017702;28;20461;-85
2022/08/14 02:12:28;;;;;;;6.90;6.13;;;24.80;56.60;;;;;;5020920;28;20550;-87
2022/08/14 02:14:55;;;;;;;7.00;6.50;;;24.80;56.60;;;;;;5021593;28;20588;-85
2022/08/14 02:17:27;;;;;;;6.73;6.23;;;24.80;56.70;;;;;;5019449;28;20474;-86
2022/08/14 02:19:54;;;;;;;7.83;7.13;;;24.90;56.60;;;;;;5021681;28;20466;-87
2022/08/14 02:22:21;;;;;;;7.27;6.57;;;24.90;56.70;;;;;;5028783;28;20496;-88
2022/08/14 02:24:55;;;;;;;7.03;6.53;;;24.90;56.70;;;;;;5025662;28;20473;-86
2022/08/14 02:27:22;;;;;;;6.47;5.93;;;25.00;56.80;;;;;;5025521;28;20450;-86
2022/08/14 02:30:09;;;;;;;7.10;6.60;;;24.90;56.80;;;;;;5022432;28;20462;-85
2022/08/14 02:32:36;;;;;;;7.40;6.70;;;25.00;57.00;;;;;;5021772;28;20465;-87
2022/08/14 02:35:17;;;;;;;6.47;5.97;;;25.00;57.10;;;;;;5024499;28;20478;-86
2022/08/14 02:37:46;;;;;;;7.90;6.37;;;24.80;57.20;;;;;;5004942;28;20478;-87
2022/08/14 02:40:17;;;;;;;7.00;6.40;;;24.90;57.40;;;;;;5021748;28;20509;-85
2022/08/14 02:42:45;;;;;;;7.47;6.87;;;24.90;57.30;;;;;;5031105;28;20523;-84
2022/08/14 02:45:21;;;;;;;7.30;6.80;;;24.80;57.40;;;;;;5033144;28;20457;-87
2022/08/14 02:47:47;;;;;;;6.67;6.17;;;24.80;57.30;;;;;;5040713;28;20458;-88
2022/08/14 02:50:15;;;;;;;7.00;6.50;;;24.60;57.50;;;;;;5041473;28;20442;-89
2022/08/14 02:52:43;;;;;;;7.60;6.80;;;24.50;57.70;;;;;;5040811;28;20553;-89
2022/08/14 02:55:23;;;;;;;7.67;6.97;;;24.40;57.90;;;;;;5040993;28;20496;-91
2022/08/14 02:57:51;;;;;;;7.20;6.60;;;24.50;57.70;;;;;;5040167;28;20465;-90
2022/08/14 03:00:24;;;;;;;7.00;6.40;;;24.40;57.80;;;;;;5039088;28;20464;-90
2022/08/14 03:02:51;;;;;;;8.33;7.63;;;24.30;57.80;;;;;;5038435;28;20468;-87
2022/08/14 03:05:22;;;;;;;5.83;5.37;;;24.20;58.10;;;;;;5023127;28;20457;-88
2022/08/14 03:07:49;;;;;;;7.07;6.47;;;24.10;58.50;;;;;;5026769;28;20883;-88
2022/08/14 03:10:18;;;;;;;6.53;6.00;;;24.10;58.80;;;;;;5027887;28;20972;-87
2022/08/14 03:12:50;;;;;;;6.83;6.30;;;24.10;58.90;;;;;;5026927;28;20518;-90
2022/08/14 03:15:17;;;;;;;7.60;6.90;;;24.20;59.50;;;;;;5014310;28;20519;-86
2022/08/14 03:17:45;;;;;;;7.17;6.67;;;24.20;60.60;;;;;;5025981;28;20473;-88
2022/08/14 03:20:28;;;;;;;7.07;6.47;;;24.10;60.30;;;;;;5024670;28;20448;-86
2022/08/14 03:22:58;;;;;;;6.23;5.83;;;24.10;60.20;;;;;;5024275;28;20450;-85
2022/08/14 03:25:25;;;;;;;6.00;5.60;;;23.90;60.30;;;;;;5023533;28;20446;-92
2022/08/14 03:27:52;;;;;;;6.80;6.30;;;23.90;60.20;;;;;;5037847;28;20438;-85
2022/08/14 03:30:26;;;;;;;6.43;6.03;;;23.80;60.30;;;;;;5026536;28;20446;-87
2022/08/14 03:33:04;;;;;;;7.93;7.20;;;23.90;60.60;;;;;;5027197;28;20529;-87
2022/08/14 03:35:32;;;;;;;6.60;6.13;;;23.90;60.30;;;;;;5026807;28;20477;-88
2022/08/14 03:38:09;;;;;;;6.67;6.07;;;23.90;60.60;;;;;;5024561;28;20489;-87
2022/08/14 03:40:56;;;;;;;6.53;5.93;;;23.70;61.10;;;;;;5025696;28;20489;-86
2022/08/14 03:43:23;;;;;;;7.93;7.33;;;23.70;62.00;;;;;;5025723;28;20478;-87
2022/08/14 03:45:54;;;;;;;7.23;6.63;;;23.80;62.40;;;;;;5024998;28;20521;-85
2022/08/14 03:48:21;;;;;;;6.87;6.37;;;23.80;62.70;;;;;;5026053;28;20542;-87
2022/08/14 03:50:55;;;;;;;7.37;6.77;;;23.70;62.90;;;;;;5023904;28;20485;-85
2022/08/14 03:53:22;;;;;;;7.07;6.53;;;23.70;63.20;;;;;;5023808;28;20482;-85
2022/08/14 03:55:49;;;;;;;7.63;6.43;;;23.60;63.20;;;;;;5024649;28;20485;-87
2022/08/14 03:58:16;;;;;;;7.60;6.90;;;23.70;63.80;;;;;;5021240;28;20979;-85
2022/08/14 04:00:49;;;;;;;7.00;6.50;;;23.60;64.20;;;;;;5026704;28;20454;-88
2022/08/14 04:03:16;;;;;;;7.47;6.87;;;23.60;64.90;;;;;;5027313;28;20821;-89
2022/08/14 04:05:49;;;;;;;7.53;6.87;;;23.80;64.90;;;;;;5024109;28;21189;-86
2022/08/14 04:08:19;;;;;;;7.40;6.70;;;23.80;64.10;;;;;;5026380;28;20517;-88
2022/08/14 04:10:49;;;;;;;7.20;6.70;;;23.80;64.70;;;;;;5025984;28;20453;-88
2022/08/14 04:13:17;;;;;;;7.77;7.17;;;23.90;64.60;;;;;;5018087;28;20459;-86
2022/08/14 04:15:45;;;;;;;12.17;7.53;;;23.90;64.70;;;;;;5008566;28;20457;-85
2022/08/14 04:18:18;;;;;;;7.70;7.10;;;23.80;65.50;;;;;;5025902;28;20474;-87
2022/08/14 04:20:45;;;;;;;7.47;6.87;;;23.70;65.80;;;;;;5027256;28;20449;-88
2022/08/14 04:23:17;;;;;;;6.80;6.20;;;23.60;66.20;;;;;;5031820;28;20453;-87
2022/08/14 04:25:52;;;;;;;7.90;7.27;;;23.70;65.90;;;;;;5028961;28;20465;-86
2022/08/14 04:28:20;;;;;;;8.40;7.60;;;23.90;65.60;;;;;;5025192;28;20489;-86
2022/08/14 04:31:07;;;;;;;9.90;7.50;;;23.80;65.70;;;;;;5032244;28;20441;-90
2022/08/14 04:33:35;;;;;;;8.33;7.67;;;23.60;66.40;;;;;;5039973;28;20918;-89
2022/08/14 04:36:03;;;;;;;8.13;7.43;;;23.60;67.40;;;;;;5039677;28;20441;-88
2022/08/14 04:44:01;;;;;;;9.00;8.20;;;23.60;69.50;;;;;;5038851;28;20464;-88
2022/08/14 04:46:28;;;;;;;7.60;7.00;;;23.60;69.10;;;;;;5037048;28;20526;-88
2022/08/14 04:49:15;;;;;;;7.80;7.10;;;23.50;69.90;;;;;;5038684;28;20477;-89
2022/08/14 04:51:44;;;;;;;8.47;7.77;;;23.60;70.10;;;;;;5038109;28;20481;-88
2022/08/14 04:54:12;;;;;;;8.17;7.47;;;23.50;70.30;;;;;;5038637;28;20466;-90
2022/08/14 04:56:39;;;;;;;8.73;8.03;;;23.70;71.00;;;;;;5037417;28;20445;-90
2022/08/14 04:59:08;;;;;;;8.30;7.60;;;23.50;71.00;;;;;;5036621;28;20461;-91
2022/08/14 05:01:41;;;;;;;8.57;7.83;;;23.50;71.20;;;;;;5025633;28;20458;-87
2022/08/14 05:04:11;;;;;;;8.50;7.60;;;23.50;72.30;;;;;;5017257;28;20566;-87
2022/08/14 05:06:40;;;;;;;8.20;7.60;;;23.30;73.10;;;;;;5012508;28;20511;-86
2022/08/14 05:09:07;;;;;;;9.03;7.57;;;23.40;73.60;;;;;;5009248;28;20450;-86
2022/08/14 05:11:39;;;;;;;9.70;7.40;;;23.40;73.70;;;;;;5022361;28;20481;-87
2022/08/14 05:14:06;;;;;;;8.10;7.50;;;23.40;74.40;;;;;;5000951;28;20494;-85
2022/08/14 05:16:43;;;;;;;10.90;9.80;;;23.50;74.20;;;;;;5009730;28;20553;-91
2022/08/14 05:19:13;;;;;;;9.40;8.60;;;23.50;74.50;;;;;;5027446;28;20474;-85
2022/08/14 05:21:45;;;;;;;7.60;7.00;;;23.50;74.90;;;;;;5009351;28;20551;-85
2022/08/14 05:24:24;;;;;;;7.53;6.87;;;23.50;75.40;;;;;;4992875;28;20477;-86
2022/08/14 05:26:52;;;;;;;8.33;7.70;;;23.50;75.90;;;;;;5021018;28;20454;-84
2022/08/14 05:29:19;;;;;;;8.60;7.90;;;23.50;75.80;;;;;;5014037;28;20529;-85
2022/08/14 05:31:46;;;;;;;9.13;8.43;;;23.70;75.70;;;;;;5020129;28;20450;-86
2022/08/14 05:34:13;;;;;;;8.03;7.23;;;23.70;76.00;;;;;;5018078;28;20549;-85
2022/08/14 05:36:39;;;;;;;8.47;7.80;;;23.50;76.40;;;;;;5018833;28;20465;-87
2022/08/14 05:39:07;;;;;;;9.00;8.27;;;23.50;77.20;;;;;;5016961;28;20477;-87
2022/08/14 05:41:35;;;;;;;9.27;8.40;;;23.50;78.30;;;;;;5015947;28;20511;-86
2022/08/14 05:44:19;;;;;;;9.97;8.97;;;23.40;78.70;;;;;;5013603;28;20505;-86
2022/08/14 05:46:47;;;;;;;8.70;8.00;;;23.30;79.50;;;;;;5014297;28;20439;-86
2022/08/14 05:49:16;;;;;;;8.57;7.87;;;23.40;79.60;;;;;;5002618;28;20456;-85
2022/08/14 05:51:45;;;;;;;8.60;7.90;;;23.40;80.20;;;;;;5015931;28;20590;-88
2022/08/14 05:54:13;;;;;;;9.00;8.27;;;23.30;81.00;;;;;;5017596;28;20499;-88
2022/08/14 05:56:54;;;;;;;9.50;8.70;;;23.30;81.40;;;;;;5038596;28;20477;-86
2022/08/14 05:59:21;;;;;;;9.03;8.13;;;23.40;81.60;;;;;;5033537;28;20458;-86
2022/08/14 06:01:54;;;;;;;8.83;8.00;;;23.50;81.40;;;;;;5030466;28;20478;-90
2022/08/14 06:04:21;;;;;;;8.07;7.43;;;23.50;81.60;;;;;;5034508;28;20470;-91
2022/08/14 06:06:48;;;;;;;8.57;7.77;;;23.60;81.40;;;;;;5020748;28;20447;-89
2022/08/14 06:09:19;;;;;;;8.40;7.70;;;23.70;81.20;;;;;;5018121;28;20467;-89
2022/08/14 06:11:46;;;;;;;8.70;8.00;;;23.70;80.80;;;;;;5027742;28;20451;-86
2022/08/14 06:14:15;;;;;;;8.27;7.53;;;23.80;81.00;;;;;;5032768;28;20502;-87
2022/08/14 06:16:47;;;;;;;9.77;8.77;;;23.90;80.90;;;;;;5013904;28;20463;-87
2022/08/14 06:19:14;;;;;;;8.93;8.23;;;24.00;80.20;;;;;;5025185;28;20468;-85
2022/08/14 06:21:43;;;;;;;8.80;8.10;;;24.10;80.60;;;;;;5021617;28;20541;-86
2022/08/14 06:24:10;;;;;;;8.37;7.67;;;25.10;78.20;;;;;;5021296;28;20545;-84
2022/08/14 06:26:44;;;;;;;8.53;7.83;;;27.90;68.60;;;;;;5009877;28;20459;-87
2022/08/14 06:29:18;;;;;;;8.07;7.30;;;30.60;56.80;;;;;;5020647;28;20995;-87
2022/08/14 06:31:46;;;;;;;9.13;8.43;;;32.20;51.50;;;;;;5021482;28;20489;-86
2022/08/14 06:34:14;;;;;;;8.30;7.60;;;33.00;49.10;;;;;;5006148;28;20478;-85
2022/08/14 06:37:01;;;;;;;7.90;7.30;;;33.50;48.00;;;;;;5015560;28;20480;-87
2022/08/14 06:39:28;;;;;;;8.43;7.63;;;34.30;45.90;;;;;;5019849;28;20454;-87
2022/08/14 06:42:02;;;;;;;8.70;8.10;;;33.90;45.10;;;;;;5014970;28;20498;-84
2022/08/14 06:44:29;;;;;;;8.60;7.97;;;31.60;47.50;;;;;;5019600;28;20577;-86
2022/08/14 06:46:59;;;;;;;8.77;7.97;;;29.40;51.40;;;;;;5009119;28;20501;-86
2022/08/14 06:49:26;;;;;;;9.47;8.77;;;27.70;55.60;;;;;;5018779;28;20549;-86
2022/08/14 06:51:53;;;;;;;8.77;7.97;;;26.80;59.20;;;;;;5007952;28;20451;-88
2022/08/14 06:54:20;;;;;;;8.83;8.10;;;26.30;62.30;;;;;;5020238;28;20520;-88
2022/08/14 06:56:49;;;;;;;8.10;7.47;;;26.00;65.10;;;;;;5012757;28;20459;-87
2022/08/14 06:59:20;;;;;;;8.43;7.70;;;25.90;66.90;;;;;;5001436;28;20479;-86
2022/08/14 07:07:26;;;;;;;8.23;7.63;;;25.90;68.20;;;;;;5015046;28;20473;-85
2022/08/14 07:09:55;;;;;;;8.03;7.43;;;26.30;66.70;;;;;;5023104;28;20490;-88
2022/08/14 07:12:22;;;;;;;8.50;7.77;;;26.60;65.60;;;;;;5011499;28;20458;-85
2022/08/14 07:15:04;;;;;;;8.10;7.40;;;26.80;64.80;;;;;;5019302;28;20544;-85
2022/08/14 07:17:31;;;;;;;7.73;7.10;;;27.10;63.60;;;;;;5019936;28;20518;-88
2022/08/14 07:19:59;;;;;;;7.37;6.70;;;27.60;60.80;;;;;;5024296;28;20446;-86
2022/08/14 07:22:27;;;;;;;8.20;7.40;;;28.00;58.80;;;;;;5027235;28;20450;-87
2022/08/14 07:24:58;;;;;;;7.10;6.50;;;28.20;58.60;;;;;;5013722;28;20505;-89
2022/08/14 07:27:26;;;;;;;7.77;7.17;;;28.90;56.50;;;;;;5038707;28;20505;-90
2022/08/14 07:29:53;;;;;;;7.13;6.60;;;31.00;54.00;;;;;;5032690;28;20446;-89
2022/08/14 07:32:21;;;;;;;8.43;7.80;;;33.60;48.50;;;;;;5037290;28;20446;-91
2022/08/14 07:34:56;;;;;;;7.60;7.10;;;35.00;44.90;;;;;;5018907;28;20469;-88
2022/08/14 07:37:23;;;;;;;6.73;6.27;;;36.20;42.60;;;;;;5018297;28;20505;-86
2022/08/14 07:39:52;;;;;;;7.10;6.60;;;36.70;40.80;;;;;;5022992;28;20454;-86
2022/08/14 07:42:21;;;;;;;6.93;6.43;;;36.80;41.00;;;;;;5024508;28;20541;-88
2022/08/14 07:44:49;;;;;;;7.80;7.23;;;36.70;39.70;;;;;;5025942;28;20473;-86
2022/08/14 07:47:16;;;;;;;6.97;6.37;;;36.90;40.30;;;;;;5024325;28;20515;-91
2022/08/14 07:49:59;;;;;;;7.10;6.60;;;36.60;40.00;;;;;;5017095;28;20447;-87
2022/08/14 07:52:27;;;;;;;7.03;6.53;;;36.70;39.70;;;;;;5017752;28;20458;-87
2022/08/14 07:54:56;;;;;;;7.37;6.87;;;36.80;39.40;;;;;;5017049;28;20510;-86
2022/08/14 07:57:23;;;;;;;7.17;6.67;;;36.90;39.30;;;;;;5022089;28;20446;-90
2022/08/14 07:59:51;;;;;;;6.50;6.10;;;37.00;38.60;;;;;;5023783;28;20469;-87
2022/08/14 08:02:21;;;;;;;7.17;6.67;;;36.70;38.80;;;;;;5017668;28;20879;-85
2022/08/14 08:04:53;;;;;;;7.40;6.93;;;36.20;40.10;;;;;;5008563;28;20522;-88
2022/08/14 08:07:29;;;;;;;7.07;6.57;;;36.70;39.20;;;;;;5023273;28;20458;-91
2022/08/14 08:10:29;;;;;;;7.83;7.20;;;37.30;38.20;;;;;;5025345;28;20442;-87
2022/08/14 08:13:09;;;;;;;8.07;7.50;;;37.70;37.60;;;;;;5027721;28;20523;-89
2022/08/14 08:15:42;;;;;;;7.00;6.50;;;37.70;37.60;;;;;;5032649;28;20462;-89
2022/08/14 08:18:12;;;;;;;7.23;6.43;;;37.40;37.60;;;;;;5028434;28;20459;-88
2022/08/14 08:20:49;;;;;;;6.43;5.93;;;37.00;38.00;;;;;;5019964;28;20457;-86
2022/08/14 08:23:20;;;;;;;6.90;6.40;;;37.00;38.00;;;;;;5016904;28;20463;-86
2022/08/14 08:25:49;;;;;;;7.30;6.60;;;36.00;39.10;;;;;;5012894;28;20944;-86
2022/08/14 08:28:20;;;;;;;6.53;6.10;;;36.30;39.40;;;;;;4994609;28;20451;-86
2022/08/14 08:30:55;;;;;;;6.47;6.07;;;37.30;37.60;;;;;;5012555;28;20458;-86
2022/08/14 08:33:26;;;;;;;6.63;6.13;;;37.40;37.30;;;;;;5016325;28;20573;-86
2022/08/14 08:36:00;;;;;;;6.70;6.20;;;38.00;36.60;;;;;;5018631;28;20997;-87
2022/08/14 08:38:39;;;;;;;7.57;7.07;;;37.70;36.40;;;;;;5009740;28;20485;-86
2022/08/14 08:41:39;;;;;;;7.10;6.60;;;37.30;36.90;;;;;;5025069;28;20442;-89
2022/08/14 08:44:06;;;;;;;6.87;6.47;;;37.20;37.40;;;;;;5027375;28;20454;-90
2022/08/14 08:46:43;;;;;;;6.83;6.33;;;38.10;36.00;;;;;;5026832;28;20855;-88
2022/08/14 08:49:11;;;;;;;6.53;6.13;;;38.40;35.60;;;;;;5021672;28;20486;-86
2022/08/14 08:51:38;;;;;;;6.70;6.30;;;38.40;35.00;;;;;;5022147;28;20446;-86
2022/08/14 08:54:11;;;;;;;7.40;6.80;;;38.10;35.70;;;;;;5025180;28;20470;-88
2022/08/14 08:56:43;;;;;;;7.33;6.63;;;37.90;36.00;;;;;;5021462;28;20463;-87
2022/08/14 08:59:26;;;;;;;6.80;6.30;;;38.60;35.00;;;;;;5022190;28;20493;-87
2022/08/14 09:02:04;;;;;;;6.60;6.17;;;38.80;34.50;;;;;;5015718;28;20462;-86
2022/08/14 09:04:38;;;;;;;6.87;6.37;;;38.80;34.30;;;;;;5010951;28;21296;-86
2022/08/14 09:07:13;;;;;;;6.37;5.97;;;39.00;34.10;;;;;;5020159;28;20454;-86
2022/08/14 09:12:32;;;;;;;6.47;5.97;;;38.80;34.20;;;;;;5002623;28;21012;-88
2022/08/14 09:15:08;;;;;;;6.80;6.30;;;39.20;33.60;;;;;;5007517;28;20483;-89
2022/08/14 09:17:38;;;;;;;6.00;5.63;;;39.30;32.90;;;;;;5011457;28;20484;-85
2022/08/14 09:20:18;;;;;;;6.20;5.70;;;38.70;33.70;;;;;;5020041;28;20460;-86
2022/08/14 09:22:53;;;;;;;5.90;5.60;;;39.30;33.10;;;;;;5027996;28;20454;-87
2022/08/14 09:25:22;;;;;;;6.17;5.77;;;39.30;33.10;;;;;;5023921;28;20483;-87
2022/08/14 09:28:21;;;;;;;6.33;5.93;;;39.30;33.20;;;;;;5021597;28;20430;-86
2022/08/14 09:30:56;;;;;;;5.30;5.00;;;40.00;32.30;;;;;;5027516;28;20998;-86
2022/08/14 09:33:57;;;;;;;5.77;5.37;;;39.70;31.20;;;;;;5021185;28;20502;-86
2022/08/14 09:37:08;;;;;;;5.33;5.00;;;39.80;31.10;;;;;;4983837;28;20461;-87
2022/08/14 09:40:00;;;;;;;6.00;5.50;;;39.50;31.10;;;;;;5016204;28;20446;-85
2022/08/14 09:43:04;;;;;;;5.50;5.00;;;39.10;31.30;;;;;;5021337;28;20442;-86
2022/08/14 09:45:57;;;;;;;5.30;4.90;;;39.10;31.60;;;;;;5029226;28;20918;-86
2022/08/14 09:49:02;;;;;;;5.77;4.87;;;39.20;30.20;;;;;;5028334;28;20462;-85
2022/08/14 09:51:32;;;;;;;4.60;4.30;;;38.90;30.20;;;;;;5030234;28;20516;-85
2022/08/14 09:54:11;;;;;;;4.23;4.03;;;38.60;31.10;;;;;;5029342;28;20481;-86
2022/08/14 09:56:49;;;;;;;5.30;4.80;;;38.70;30.70;;;;;;5017675;28;20449;-85
2022/08/14 09:59:23;;;;;;;4.50;4.10;;;38.70;30.10;;;;;;5031642;28;20492;-86
2022/08/14 10:01:50;;;;;;;4.63;4.33;;;38.60;30.10;;;;;;5029483;28;20465;-86
2022/08/14 10:04:25;;;;;;;3.93;3.73;;;39.20;29.60;;;;;;5029654;28;20479;-86
2022/08/14 10:07:13;;;;;;;24.07;12.13;;;39.20;29.30;;;;;;5040487;28;21003;-86
2022/08/14 10:09:48;;;;;;;11.67;7.67;;;39.30;29.00;;;;;;5006707;28;20466;-87
2022/08/14 10:12:23;;;;;;;5.13;4.63;;;39.30;29.30;;;;;;5027226;28;20453;-87
2022/08/14 10:14:56;;;;;;;5.10;4.73;;;39.20;29.40;;;;;;5028948;28;20469;-87
2022/08/14 10:17:25;;;;;;;4.63;4.30;;;39.30;29.30;;;;;;5028778;28;20442;-87
2022/08/14 10:19:53;;;;;;;4.73;4.43;;;39.50;29.30;;;;;;5027007;28;20555;-86
2022/08/14 10:22:28;;;;;;;4.23;4.00;;;40.00;28.90;;;;;;5035185;28;20441;-88
2022/08/14 10:25:18;;;;;;;4.53;4.23;;;39.30;29.40;;;;;;5036805;28;20509;-88
2022/08/14 10:27:59;;;;;;;4.50;4.30;;;39.90;28.90;;;;;;5031045;28;20450;-86
2022/08/14 10:30:37;;;;;;;4.17;3.87;;;39.80;28.70;;;;;;5016340;28;20481;-87
2022/08/14 10:33:06;;;;;;;4.20;3.93;;;39.10;29.20;;;;;;5012998;28;20458;-86
2022/08/14 10:35:43;;;;;;;4.73;4.33;;;38.60;29.50;;;;;;5016122;28;20461;-87
2022/08/14 10:38:33;;;;;;;4.00;3.80;;;38.40;30.00;;;;;;5026011;28;20512;-86
2022/08/14 10:41:15;;;;;;;4.60;4.30;;;38.30;30.00;;;;;;5022301;28;20442;-86
2022/08/14 10:44:12;;;;;;;4.20;4.00;;;38.50;30.20;;;;;;5021174;28;20504;-85
2022/08/14 10:46:57;;;;;;;3.80;3.60;;;38.80;30.10;;;;;;5020650;28;20927;-88
2022/08/14 10:49:59;;;;;;;4.63;4.23;;;39.00;29.00;;;;;;5000612;28;20459;-87
2022/08/14 10:52:31;;;;;;;4.00;3.70;;;38.80;29.30;;;;;;5016734;28;20477;-87
2022/08/14 10:55:21;;;;;;;4.30;4.00;;;37.70;29.50;;;;;;5020447;28;20552;-87
2022/08/14 10:57:51;;;;;;;3.50;3.30;;;37.20;30.10;;;;;;5022944;28;20537;-86
2022/08/14 11:00:25;;;;;;;3.63;3.33;;;37.70;29.90;;;;;;5018262;28;20531;-86
2022/08/14 11:03:08;;;;;;;3.47;3.27;;;38.50;28.70;;;;;;5024031;28;20524;-86
2022/08/14 11:05:49;;;;;;;3.73;3.53;;;38.60;28.50;;;;;;5035643;28;20464;-86
2022/08/14 11:08:30;;;;;;;3.97;3.77;;;38.30;28.50;;;;;;5025641;28;20818;-86
2022/08/14 11:11:02;;;;;;;4.13;3.93;;;38.00;28.80;;;;;;5023830;28;20445;-85
2022/08/14 11:13:33;;;;;;;4.40;4.00;;;37.70;29.50;;;;;;5022428;28;20497;-86
2022/08/14 11:16:01;;;;;;;3.70;3.50;;;38.30;29.00;;;;;;5022663;28;20446;-86
2022/08/14 11:18:31;;;;;;;4.40;4.10;;;37.60;29.60;;;;;;5025436;28;20592;-88
2022/08/14 11:21:05;;;;;;;4.27;4.07;;;37.70;29.50;;;;;;5024059;28;20453;-86
2022/08/14 11:23:38;;;;;;;3.70;3.50;;;37.70;29.50;;;;;;5014410;28;20503;-86
2022/08/14 11:26:08;;;;;;;3.40;3.20;;;37.80;30.00;;;;;;5034776;28;20496;-85
2022/08/14 11:28:42;;;;;;;4.10;3.80;;;38.10;28.90;;;;;;5007059;28;20485;-86
2022/08/14 11:31:14;;;;;;;3.60;3.40;;;37.30;29.40;;;;;;5026993;28;20459;-85
2022/08/14 11:33:46;;;;;;;3.20;3.10;;;37.40;29.90;;;;;;5024266;28;20497;-85
2022/08/14 11:36:14;;;;;;;4.03;3.77;;;37.30;29.50;;;;;;5022029;28;20500;-86
2022/08/14 11:38:45;;;;;;;3.93;3.73;;;37.40;29.70;;;;;;5024111;28;21010;-87
2022/08/14 11:41:15;;;;;;;3.60;3.40;;;37.70;29.10;;;;;;5025203;28;20446;-87
2022/08/14 11:43:49;;;;;;;3.17;2.97;;;37.60;29.20;;;;;;5007770;28;20532;-86
2022/08/14 11:46:22;;;;;;;3.20;3.00;;;37.50;29.40;;;;;;5023119;28;20457;-86
2022/08/14 11:48:56;;;;;;;3.47;3.27;;;37.50;29.60;;;;;;5023170;28;20532;-86
2022/08/14 11:51:30;;;;;;;3.60;3.40;;;37.70;29.40;;;;;;5022061;28;20515;-86
2022/08/14 11:54:05;;;;;;;3.30;3.10;;;38.30;29.20;;;;;;5022105;28;20469;-86
2022/08/14 11:56:35;;;;;;;4.73;2.63;;;38.30;29.20;;;;;;5021272;28;20460;-86
2022/08/14 11:59:05;;;;;;;3.93;3.60;;;38.50;28.60;;;;;;5021359;28;20481;-85
2022/08/14 12:01:35;;;;;;;3.00;2.90;;;39.20;28.00;;;;;;5020932;28;20538;-86
2022/08/14 12:04:16;;;;;;;3.40;3.20;;;39.30;27.60;;;;;;5021901;28;20497;-86
2022/08/14 12:06:54;;;;;;;3.03;2.93;;;38.60;27.80;;;;;;5011998;28;20833;-86
2022/08/14 12:09:35;;;;;;;3.40;3.20;;;38.30;28.10;;;;;;5019312;28;20537;-87
2022/08/14 12:12:17;;;;;;;3.20;3.00;;;37.50;28.90;;;;;;5022334;28;20452;-85
2022/08/14 12:15:00;;;;;;;3.30;3.10;;;38.10;28.90;;;;;;5022082;28;20478;-86
2022/08/14 12:17:38;;;;;;;3.47;3.27;;;38.00;28.80;;;;;;5009524;28;20466;-85
2022/08/14 12:20:13;;;;;;;3.33;3.13;;;38.10;28.90;;;;;;5017090;28;20481;-84
2022/08/14 12:22:45;;;;;;;3.27;3.07;;;37.90;29.20;;;;;;5016959;28;20830;-87
2022/08/14 12:25:21;;;;;;;3.80;3.60;;;37.60;29.30;;;;;;5022051;28;20512;-85
2022/08/14 12:27:54;;;;;;;3.87;3.67;;;38.10;28.80;;;;;;5022000;28;20460;-86
2022/08/14 12:30:40;;;;;;;3.70;3.50;;;37.90;28.90;;;;;;5018859;28;20547;-86
2022/08/14 12:33:38;;;;;;;3.50;3.30;;;37.40;29.40;;;;;;5018926;28;20446;-87
2022/08/14 12:36:22;;;;;;;3.67;3.43;;;37.80;29.30;;;;;;5021732;28;20450;-85
2022/08/14 12:38:53;;;;;;;4.00;3.80;;;37.70;29.40;;;;;;5022420;28;20568;-86
2022/08/14 12:41:23;;;;;;;3.40;3.20;;;38.00;29.10;;;;;;5011310;28;20450;-86
2022/08/14 12:44:00;;;;;;;3.80;3.50;;;38.20;29.20;;;;;;5023416;28;20484;-87
2022/08/14 12:46:32;;;;;;;3.60;3.40;;;38.00;28.60;;;;;;5013998;28;20470;-87
2022/08/14 12:49:15;;;;;;;3.53;3.33;;;38.00;29.10;;;;;;5033733;28;20450;-90
2022/08/14 12:51:55;;;;;;;3.80;3.60;;;38.50;28.80;;;;;;5032806;28;20461;-85
2022/08/14 12:54:23;;;;;;;3.40;3.20;;;38.30;28.70;;;;;;5034831;28;20573;-85
2022/08/14 12:57:10;;;;;;;3.73;3.53;;;38.10;29.30;;;;;;5032892;28;20478;-91
2022/08/14 12:59:42;;;;;;;4.20;4.00;;;37.90;30.00;;;;;;5027410;28;20493;-90
2022/08/14 13:02:23;;;;;;;3.83;3.63;;;38.00;29.80;;;;;;5038810;28;20510;-91
2022/08/14 13:04:54;;;;;;;4.10;3.80;;;37.70;30.00;;;;;;5021142;28;20498;-87
2022/08/14 13:07:21;;;;;;;3.90;3.63;;;38.10;29.60;;;;;;5033366;28;20458;-87
2022/08/14 13:09:55;;;;;;;4.00;3.77;;;37.90;29.70;;;;;;5020614;28;20447;-87
2022/08/14 13:12:27;;;;;;;3.40;3.10;;;37.20;30.50;;;;;;5030455;28;20434;-88
2022/08/14 13:14:59;;;;;;;3.90;3.60;;;37.30;30.40;;;;;;5037573;28;20565;-91
2022/08/14 13:17:27;;;;;;;4.17;3.97;;;37.10;31.10;;;;;;5037832;28;20443;-90
2022/08/14 13:19:59;;;;;;;5.10;4.80;;;37.10;31.10;;;;;;5025864;28;20495;-89
2022/08/14 13:22:31;;;;;;;4.17;3.87;;;37.10;31.40;;;;;;5022365;28;20450;-90
2022/08/14 13:25:05;;;;;;;3.83;3.63;;;37.10;31.60;;;;;;5037507;28;20454;-85
2022/08/14 13:27:34;;;;;;;4.17;3.97;;;37.00;31.20;;;;;;5037416;28;20437;-88
2022/08/14 13:30:07;;;;;;;4.10;3.80;;;36.40;31.00;;;;;;5037703;28;20481;-86
2022/08/14 13:32:43;;;;;;;3.40;3.20;;;36.40;30.90;;;;;;5037884;28;20438;-86